sensor_id;sensor_type;location;lat;lon;timestamp;P1;durP1;ratioP1;P2;durP2;ratioP2
30553;SDS011;17335;50.720;7.452;2023-02-08T00:01:10;16.02;;;6.90;;
30553;SDS011;17335;50.720;7.452;2023-02-08T00:03:38;17.27;;;7.25;;
30553;SDS011;17335;50.720;7.452;2023-02-08T00:06:05;21.40;;;8.45;;
30553;SDS011;17335;50.720;7.452;2023-02-08T00:08:33;18.95;;;7.53;;
30553;SDS011;17335;50.720;7.452;2023-02-08T00:11:00;20.83;;;8.45;;
30553;SDS011;17335;50.720;7.452;2023-02-08T00:13:27;15.10;;;7.40;;
30553;SDS011;17335;50.720;7.452;2023-02-08T00:15:53;22.30;;;8.27;;
30553;SDS011;17335;50.720;7.452;2023-02-08T00:18:21;21.77;;;8.18;;
30553;SDS011;17335;50.720;7.452;2023-02-08T00:20:56;24.67;;;8.88;;
30553;SDS011;17335;50.720;7.452;2023-02-08T00:23:23;28.50;;;8.48;;
30553;SDS011;17335;50.720;7.452;2023-02-08T00:25:51;16.98;;;7.97;;
30553;SDS011;17335;50.720;7.452;2023-02-08T00:28:17;16.55;;;7.35;;
30553;SDS011;17335;50.720;7.452;2023-02-08T00:30:44;24.48;;;8.38;;
30553;SDS011;17335;50.720;7.452;2023-02-08T00:33:11;20.20;;;7.55;;
30553;SDS011;17335;50.720;7.452;2023-02-08T00:35:38;22.90;;;8.15;;
30553;SDS011;17335;50.720;7.452;2023-02-08T00:38:06;22.88;;;8.77;;
30553;SDS011;17335;50.720;7.452;2023-02-08T00:40:32;24.67;;;8.15;;
30553;SDS011;17335;50.720;7.452;2023-02-08T00:42:59;16.73;;;7.70;;
30553;SDS011;17335;50.720;7.452;2023-02-08T00:45:25;20.90;;;8.02;;
30553;SDS011;17335;50.720;7.452;2023-02-08T00:47:52;26.42;;;8.80;;
30553;SDS011;17335;50.720;7.452;2023-02-08T00:50:20;17.45;;;7.85;;
30553;SDS011;17335;50.720;7.452;2023-02-08T00:52:47;18.60;;;8.20;;
30553;SDS011;17335;50.720;7.452;2023-02-08T00:55:13;21.73;;;7.88;;
30553;SDS011;17335;50.720;7.452;2023-02-08T00:57:41;16.88;;;8.05;;
30553;SDS011;17335;50.720;7.452;2023-02-08T01:00:08;19.50;;;7.45;;
30553;SDS011;17335;50.720;7.452;2023-02-08T01:02:36;19.70;;;7.93;;
30553;SDS011;17335;50.720;7.452;2023-02-08T01:05:04;17.55;;;7.78;;
30553;SDS011;17335;50.720;7.452;2023-02-08T01:07:30;17.20;;;7.32;;
30553;SDS011;17335;50.720;7.452;2023-02-08T01:09:57;16.92;;;7.32;;
30553;SDS011;17335;50.720;7.452;2023-02-08T01:12:26;16.42;;;6.57;;
30553;SDS011;17335;50.720;7.452;2023-02-08T01:14:52;16.15;;;7.03;;
30553;SDS011;17335;50.720;7.452;2023-02-08T01:17:19;16.85;;;7.05;;
30553;SDS011;17335;50.720;7.452;2023-02-08T01:19:49;16.42;;;6.50;;
30553;SDS011;17335;50.720;7.452;2023-02-08T01:22:15;16.23;;;6.05;;
30553;SDS011;17335;50.720;7.452;2023-02-08T01:24:43;17.80;;;7.85;;
30553;SDS011;17335;50.720;7.452;2023-02-08T01:27:09;16.45;;;7.65;;
30553;SDS011;17335;50.720;7.452;2023-02-08T01:29:37;19.00;;;6.85;;
30553;SDS011;17335;50.720;7.452;2023-02-08T01:32:03;14.32;;;5.82;;
30553;SDS011;17335;50.720;7.452;2023-02-08T01:34:31;14.48;;;6.63;;
30553;SDS011;17335;50.720;7.452;2023-02-08T01:36:57;15.85;;;6.68;;
30553;SDS011;17335;50.720;7.452;2023-02-08T01:39:24;14.48;;;6.32;;
30553;SDS011;17335;50.720;7.452;2023-02-08T01:41:50;17.92;;;6.90;;
30553;SDS011;17335;50.720;7.452;2023-02-08T01:46:47;18.35;;;6.93;;
30553;SDS011;17335;50.720;7.452;2023-02-08T01:54:38;11.25;;;5.22;;
30553;SDS011;17335;50.720;7.452;2023-02-08T01:57:08;12.63;;;6.00;;
30553;SDS011;17335;50.720;7.452;2023-02-08T01:59:38;15.85;;;7.20;;
30553;SDS011;17335;50.720;7.452;2023-02-08T02:02:09;15.05;;;6.65;;
30553;SDS011;17335;50.720;7.452;2023-02-08T02:04:38;15.23;;;6.35;;
30553;SDS011;17335;50.720;7.452;2023-02-08T02:07:05;14.10;;;6.20;;
30553;SDS011;17335;50.720;7.452;2023-02-08T02:09:37;13.90;;;7.05;;
30553;SDS011;17335;50.720;7.452;2023-02-08T02:12:08;15.52;;;7.43;;
30553;SDS011;17335;50.720;7.452;2023-02-08T02:14:36;18.25;;;6.32;;
30553;SDS011;17335;50.720;7.452;2023-02-08T02:17:05;15.65;;;7.45;;
30553;SDS011;17335;50.720;7.452;2023-02-08T02:42:11;18.50;;;7.78;;
30553;SDS011;17335;50.720;7.452;2023-02-08T02:50:23;16.60;;;6.82;;
30553;SDS011;17335;50.720;7.452;2023-02-08T02:55:29;17.58;;;5.85;;
30553;SDS011;17335;50.720;7.452;2023-02-08T02:58:01;19.23;;;5.97;;
30553;SDS011;17335;50.720;7.452;2023-02-08T03:00:29;16.50;;;6.38;;
30553;SDS011;17335;50.720;7.452;2023-02-08T03:02:57;12.93;;;6.18;;
30553;SDS011;17335;50.720;7.452;2023-02-08T03:05:25;15.15;;;6.03;;
30553;SDS011;17335;50.720;7.452;2023-02-08T03:07:59;11.98;;;6.03;;
30553;SDS011;17335;50.720;7.452;2023-02-08T03:16:15;13.63;;;5.88;;
30553;SDS011;17335;50.720;7.452;2023-02-08T03:18:50;16.20;;;6.32;;
30553;SDS011;17335;50.720;7.452;2023-02-08T03:21:28;12.38;;;5.68;;
30553;SDS011;17335;50.720;7.452;2023-02-08T03:26:35;15.38;;;5.70;;
30553;SDS011;17335;50.720;7.452;2023-02-08T03:29:35;14.80;;;5.63;;
30553;SDS011;17335;50.720;7.452;2023-02-08T03:32:12;13.10;;;5.85;;
30553;SDS011;17335;50.720;7.452;2023-02-08T03:35:06;13.38;;;5.07;;
30553;SDS011;17335;50.720;7.452;2023-02-08T03:37:40;13.40;;;5.60;;
30553;SDS011;17335;50.720;7.452;2023-02-08T03:40:13;11.82;;;5.50;;
30553;SDS011;17335;50.720;7.452;2023-02-08T03:42:48;13.40;;;5.40;;
30553;SDS011;17335;50.720;7.452;2023-02-08T03:45:21;13.48;;;6.63;;
30553;SDS011;17335;50.720;7.452;2023-02-08T03:47:52;16.38;;;5.78;;
30553;SDS011;17335;50.720;7.452;2023-02-08T03:50:22;12.38;;;5.85;;
30553;SDS011;17335;50.720;7.452;2023-02-08T03:52:49;13.98;;;5.80;;
30553;SDS011;17335;50.720;7.452;2023-02-08T03:55:25;11.05;;;5.78;;
30553;SDS011;17335;50.720;7.452;2023-02-08T03:58:05;21.15;;;6.22;;
30553;SDS011;17335;50.720;7.452;2023-02-08T04:00:39;12.65;;;5.35;;
30553;SDS011;17335;50.720;7.452;2023-02-08T04:03:12;12.57;;;5.00;;
30553;SDS011;17335;50.720;7.452;2023-02-08T04:05:42;16.98;;;6.55;;
30553;SDS011;17335;50.720;7.452;2023-02-08T04:08:09;11.73;;;5.43;;
30553;SDS011;17335;50.720;7.452;2023-02-08T04:10:35;21.60;;;6.03;;
30553;SDS011;17335;50.720;7.452;2023-02-08T04:13:02;14.30;;;5.63;;
30553;SDS011;17335;50.720;7.452;2023-02-08T04:15:29;19.20;;;6.63;;
30553;SDS011;17335;50.720;7.452;2023-02-08T04:17:56;12.32;;;5.68;;
30553;SDS011;17335;50.720;7.452;2023-02-08T04:20:23;13.38;;;5.18;;
30553;SDS011;17335;50.720;7.452;2023-02-08T04:22:49;8.77;;;4.68;;
30553;SDS011;17335;50.720;7.452;2023-02-08T04:25:16;13.57;;;5.95;;
30553;SDS011;17335;50.720;7.452;2023-02-08T04:27:42;13.73;;;6.10;;
30553;SDS011;17335;50.720;7.452;2023-02-08T04:30:09;20.10;;;5.88;;
30553;SDS011;17335;50.720;7.452;2023-02-08T04:32:36;12.05;;;5.85;;
30553;SDS011;17335;50.720;7.452;2023-02-08T04:35:03;16.20;;;6.22;;
30553;SDS011;17335;50.720;7.452;2023-02-08T04:37:30;13.07;;;5.93;;
30553;SDS011;17335;50.720;7.452;2023-02-08T04:39:57;15.35;;;5.93;;
30553;SDS011;17335;50.720;7.452;2023-02-08T04:42:24;13.35;;;6.45;;
30553;SDS011;17335;50.720;7.452;2023-02-08T04:44:50;11.50;;;4.95;;
30553;SDS011;17335;50.720;7.452;2023-02-08T04:47:17;11.95;;;5.00;;
30553;SDS011;17335;50.720;7.452;2023-02-08T04:49:44;10.75;;;5.03;;
30553;SDS011;17335;50.720;7.452;2023-02-08T04:52:10;7.72;;;4.65;;
30553;SDS011;17335;50.720;7.452;2023-02-08T04:54:36;9.80;;;4.78;;
30553;SDS011;17335;50.720;7.452;2023-02-08T04:57:06;11.88;;;5.35;;
30553;SDS011;17335;50.720;7.452;2023-02-08T04:59:32;12.13;;;5.70;;
30553;SDS011;17335;50.720;7.452;2023-02-08T05:01:59;10.43;;;4.70;;
30553;SDS011;17335;50.720;7.452;2023-02-08T05:04:26;13.30;;;4.95;;
30553;SDS011;17335;50.720;7.452;2023-02-08T05:06:52;13.07;;;4.85;;
30553;SDS011;17335;50.720;7.452;2023-02-08T05:09:19;11.30;;;5.28;;
30553;SDS011;17335;50.720;7.452;2023-02-08T05:11:46;12.43;;;4.75;;
30553;SDS011;17335;50.720;7.452;2023-02-08T05:14:12;10.63;;;4.72;;
30553;SDS011;17335;50.720;7.452;2023-02-08T05:16:39;14.32;;;5.10;;
30553;SDS011;17335;50.720;7.452;2023-02-08T05:19:05;15.85;;;4.85;;
30553;SDS011;17335;50.720;7.452;2023-02-08T05:21:32;8.90;;;4.20;;
30553;SDS011;17335;50.720;7.452;2023-02-08T05:23:58;11.18;;;4.93;;
30553;SDS011;17335;50.720;7.452;2023-02-08T05:26:25;11.27;;;4.93;;
30553;SDS011;17335;50.720;7.452;2023-02-08T05:28:51;9.43;;;4.90;;
30553;SDS011;17335;50.720;7.452;2023-02-08T05:31:19;12.68;;;5.00;;
30553;SDS011;17335;50.720;7.452;2023-02-08T05:33:49;7.43;;;4.20;;
30553;SDS011;17335;50.720;7.452;2023-02-08T05:36:16;9.68;;;4.63;;
30553;SDS011;17335;50.720;7.452;2023-02-08T05:38:43;10.50;;;4.85;;
30553;SDS011;17335;50.720;7.452;2023-02-08T05:41:09;13.73;;;5.35;;
30553;SDS011;17335;50.720;7.452;2023-02-08T05:43:36;9.93;;;4.43;;
30553;SDS011;17335;50.720;7.452;2023-02-08T05:46:03;11.57;;;4.80;;
30553;SDS011;17335;50.720;7.452;2023-02-08T05:48:29;9.75;;;4.32;;
30553;SDS011;17335;50.720;7.452;2023-02-08T05:50:56;10.57;;;5.07;;
30553;SDS011;17335;50.720;7.452;2023-02-08T05:53:24;14.30;;;6.13;;
30553;SDS011;17335;50.720;7.452;2023-02-08T05:55:51;14.77;;;4.90;;
30553;SDS011;17335;50.720;7.452;2023-02-08T05:58:17;12.85;;;4.95;;
30553;SDS011;17335;50.720;7.452;2023-02-08T06:00:44;13.48;;;6.00;;
30553;SDS011;17335;50.720;7.452;2023-02-08T06:03:11;11.25;;;5.25;;
30553;SDS011;17335;50.720;7.452;2023-02-08T06:05:38;13.27;;;5.35;;
30553;SDS011;17335;50.720;7.452;2023-02-08T06:08:05;12.45;;;5.38;;
30553;SDS011;17335;50.720;7.452;2023-02-08T06:10:32;12.75;;;5.43;;
30553;SDS011;17335;50.720;7.452;2023-02-08T06:12:58;13.07;;;5.35;;
30553;SDS011;17335;50.720;7.452;2023-02-08T06:15:25;12.55;;;4.65;;
30553;SDS011;17335;50.720;7.452;2023-02-08T06:17:52;13.95;;;5.15;;
30553;SDS011;17335;50.720;7.452;2023-02-08T06:20:19;13.07;;;4.57;;
30553;SDS011;17335;50.720;7.452;2023-02-08T06:22:46;15.73;;;5.70;;
30553;SDS011;17335;50.720;7.452;2023-02-08T06:25:12;11.40;;;4.57;;
30553;SDS011;17335;50.720;7.452;2023-02-08T06:27:39;12.20;;;5.47;;
30553;SDS011;17335;50.720;7.452;2023-02-08T06:30:06;14.70;;;5.43;;
30553;SDS011;17335;50.720;7.452;2023-02-08T06:32:33;12.80;;;5.10;;
30553;SDS011;17335;50.720;7.452;2023-02-08T06:34:59;12.52;;;5.95;;
30553;SDS011;17335;50.720;7.452;2023-02-08T06:37:26;13.70;;;4.85;;
30553;SDS011;17335;50.720;7.452;2023-02-08T06:39:53;12.05;;;5.05;;
30553;SDS011;17335;50.720;7.452;2023-02-08T06:42:19;9.80;;;4.68;;
30553;SDS011;17335;50.720;7.452;2023-02-08T06:44:45;12.93;;;5.43;;
30553;SDS011;17335;50.720;7.452;2023-02-08T06:47:20;9.48;;;4.75;;
30553;SDS011;17335;50.720;7.452;2023-02-08T06:49:47;9.52;;;4.90;;
30553;SDS011;17335;50.720;7.452;2023-02-08T06:52:14;12.52;;;4.88;;
30553;SDS011;17335;50.720;7.452;2023-02-08T06:54:40;18.38;;;5.47;;
30553;SDS011;17335;50.720;7.452;2023-02-08T06:57:07;15.95;;;5.30;;
30553;SDS011;17335;50.720;7.452;2023-02-08T06:59:33;10.27;;;4.85;;
30553;SDS011;17335;50.720;7.452;2023-02-08T07:02:00;10.80;;;5.40;;
30553;SDS011;17335;50.720;7.452;2023-02-08T07:04:26;11.57;;;5.00;;
30553;SDS011;17335;50.720;7.452;2023-02-08T07:06:53;13.82;;;4.50;;
30553;SDS011;17335;50.720;7.452;2023-02-08T07:09:19;14.63;;;5.57;;
30553;SDS011;17335;50.720;7.452;2023-02-08T07:11:45;9.00;;;4.22;;
30553;SDS011;17335;50.720;7.452;2023-02-08T07:14:12;13.00;;;5.72;;
30553;SDS011;17335;50.720;7.452;2023-02-08T07:16:40;14.77;;;5.18;;
30553;SDS011;17335;50.720;7.452;2023-02-08T07:19:07;12.45;;;4.82;;
30553;SDS011;17335;50.720;7.452;2023-02-08T07:21:33;10.73;;;4.70;;
30553;SDS011;17335;50.720;7.452;2023-02-08T07:24:00;11.85;;;4.90;;
30553;SDS011;17335;50.720;7.452;2023-02-08T07:26:26;11.48;;;4.63;;
30553;SDS011;17335;50.720;7.452;2023-02-08T07:28:53;16.42;;;5.60;;
30553;SDS011;17335;50.720;7.452;2023-02-08T07:31:19;11.65;;;4.97;;
30553;SDS011;17335;50.720;7.452;2023-02-08T07:33:46;11.60;;;4.85;;
30553;SDS011;17335;50.720;7.452;2023-02-08T07:36:12;12.70;;;5.50;;
30553;SDS011;17335;50.720;7.452;2023-02-08T07:38:39;11.93;;;5.38;;
30553;SDS011;17335;50.720;7.452;2023-02-08T07:41:06;10.57;;;4.78;;
30553;SDS011;17335;50.720;7.452;2023-02-08T07:43:35;10.52;;;4.72;;
30553;SDS011;17335;50.720;7.452;2023-02-08T07:46:06;12.85;;;4.68;;
30553;SDS011;17335;50.720;7.452;2023-02-08T07:48:34;12.55;;;5.20;;
30553;SDS011;17335;50.720;7.452;2023-02-08T07:51:02;16.85;;;5.43;;
30553;SDS011;17335;50.720;7.452;2023-02-08T07:53:29;12.65;;;4.72;;
30553;SDS011;17335;50.720;7.452;2023-02-08T07:55:56;14.85;;;5.50;;
30553;SDS011;17335;50.720;7.452;2023-02-08T07:58:23;9.50;;;4.80;;
30553;SDS011;17335;50.720;7.452;2023-02-08T08:00:50;9.20;;;4.10;;
30553;SDS011;17335;50.720;7.452;2023-02-08T08:03:16;10.63;;;5.50;;
30553;SDS011;17335;50.720;7.452;2023-02-08T08:05:43;10.27;;;4.78;;
30553;SDS011;17335;50.720;7.452;2023-02-08T08:08:10;13.88;;;5.65;;
30553;SDS011;17335;50.720;7.452;2023-02-08T08:10:37;12.90;;;5.40;;
30553;SDS011;17335;50.720;7.452;2023-02-08T08:13:04;10.45;;;5.15;;
30553;SDS011;17335;50.720;7.452;2023-02-08T08:15:31;11.18;;;5.40;;
30553;SDS011;17335;50.720;7.452;2023-02-08T08:17:57;13.27;;;5.80;;
30553;SDS011;17335;50.720;7.452;2023-02-08T08:20:24;14.45;;;5.60;;
30553;SDS011;17335;50.720;7.452;2023-02-08T08:22:51;12.32;;;5.88;;
30553;SDS011;17335;50.720;7.452;2023-02-08T08:25:17;12.77;;;6.25;;
30553;SDS011;17335;50.720;7.452;2023-02-08T08:27:44;19.27;;;6.05;;
30553;SDS011;17335;50.720;7.452;2023-02-08T08:30:11;13.55;;;6.60;;
30553;SDS011;17335;50.720;7.452;2023-02-08T08:32:39;15.20;;;7.35;;
30553;SDS011;17335;50.720;7.452;2023-02-08T08:35:06;15.95;;;7.50;;
30553;SDS011;17335;50.720;7.452;2023-02-08T08:37:34;14.20;;;6.13;;
30553;SDS011;17335;50.720;7.452;2023-02-08T08:40:01;16.52;;;6.57;;
30553;SDS011;17335;50.720;7.452;2023-02-08T08:42:30;16.55;;;7.05;;
30553;SDS011;17335;50.720;7.452;2023-02-08T08:44:56;15.73;;;5.82;;
30553;SDS011;17335;50.720;7.452;2023-02-08T08:47:22;13.77;;;6.22;;
30553;SDS011;17335;50.720;7.452;2023-02-08T08:49:49;17.08;;;6.10;;
30553;SDS011;17335;50.720;7.452;2023-02-08T08:52:15;15.75;;;7.13;;
30553;SDS011;17335;50.720;7.452;2023-02-08T08:54:42;13.40;;;5.80;;
30553;SDS011;17335;50.720;7.452;2023-02-08T08:57:08;15.80;;;7.40;;
30553;SDS011;17335;50.720;7.452;2023-02-08T08:59:35;19.10;;;7.55;;
30553;SDS011;17335;50.720;7.452;2023-02-08T09:02:01;17.10;;;6.57;;
30553;SDS011;17335;50.720;7.452;2023-02-08T09:04:28;15.40;;;7.18;;
30553;SDS011;17335;50.720;7.452;2023-02-08T09:06:55;16.48;;;6.25;;
30553;SDS011;17335;50.720;7.452;2023-02-08T09:09:21;16.42;;;6.75;;
30553;SDS011;17335;50.720;7.452;2023-02-08T09:11:48;16.90;;;6.80;;
30553;SDS011;17335;50.720;7.452;2023-02-08T09:14:14;12.10;;;6.10;;
30553;SDS011;17335;50.720;7.452;2023-02-08T09:16:41;14.43;;;5.80;;
30553;SDS011;17335;50.720;7.452;2023-02-08T09:19:12;17.63;;;6.50;;
30553;SDS011;17335;50.720;7.452;2023-02-08T09:21:41;16.33;;;7.70;;
30553;SDS011;17335;50.720;7.452;2023-02-08T09:24:08;19.70;;;7.90;;
30553;SDS011;17335;50.720;7.452;2023-02-08T09:26:34;16.65;;;7.43;;
30553;SDS011;17335;50.720;7.452;2023-02-08T09:29:01;16.70;;;7.88;;
30553;SDS011;17335;50.720;7.452;2023-02-08T09:31:29;14.65;;;7.22;;
30553;SDS011;17335;50.720;7.452;2023-02-08T09:33:58;14.25;;;6.93;;
30553;SDS011;17335;50.720;7.452;2023-02-08T09:36:27;18.33;;;6.85;;
30553;SDS011;17335;50.720;7.452;2023-02-08T09:38:57;11.95;;;5.57;;
30553;SDS011;17335;50.720;7.452;2023-02-08T09:49:54;13.95;;;5.50;;
30553;SDS011;17335;50.720;7.452;2023-02-08T09:52:28;14.95;;;5.53;;
30553;SDS011;17335;50.720;7.452;2023-02-08T09:55:31;10.70;;;4.80;;
30553;SDS011;17335;50.720;7.452;2023-02-08T09:58:03;11.02;;;4.45;;
30553;SDS011;17335;50.720;7.452;2023-02-08T10:00:41;9.85;;;4.57;;
30553;SDS011;17335;50.720;7.452;2023-02-08T10:03:18;8.85;;;3.85;;
30553;SDS011;17335;50.720;7.452;2023-02-08T10:05:51;9.98;;;4.28;;
30553;SDS011;17335;50.720;7.452;2023-02-08T10:08:18;9.05;;;4.38;;
30553;SDS011;17335;50.720;7.452;2023-02-08T10:10:51;9.93;;;4.38;;
30553;SDS011;17335;50.720;7.452;2023-02-08T10:13:40;10.80;;;4.57;;
30553;SDS011;17335;50.720;7.452;2023-02-08T10:27:17;13.53;;;5.23;;
30553;SDS011;17335;50.720;7.452;2023-02-08T10:32:39;10.80;;;5.47;;
30553;SDS011;17335;50.720;7.452;2023-02-08T10:35:25;11.60;;;5.15;;
30553;SDS011;17335;50.720;7.452;2023-02-08T10:38:00;12.35;;;6.32;;
30553;SDS011;17335;50.720;7.452;2023-02-08T10:40:36;10.02;;;4.90;;
30553;SDS011;17335;50.720;7.452;2023-02-08T10:51:24;10.95;;;4.93;;
30553;SDS011;17335;50.720;7.452;2023-02-08T10:53:51;13.35;;;5.82;;
30553;SDS011;17335;50.720;7.452;2023-02-08T10:58:55;12.63;;;6.05;;
30553;SDS011;17335;50.720;7.452;2023-02-08T11:01:24;11.75;;;5.63;;
30553;SDS011;17335;50.720;7.452;2023-02-08T11:04:02;10.93;;;5.90;;
30553;SDS011;17335;50.720;7.452;2023-02-08T11:06:31;13.93;;;6.00;;
30553;SDS011;17335;50.720;7.452;2023-02-08T11:08:57;13.48;;;5.82;;
30553;SDS011;17335;50.720;7.452;2023-02-08T11:11:24;9.85;;;5.07;;
30553;SDS011;17335;50.720;7.452;2023-02-08T11:13:52;10.65;;;4.82;;
30553;SDS011;17335;50.720;7.452;2023-02-08T11:16:30;9.75;;;4.93;;
30553;SDS011;17335;50.720;7.452;2023-02-08T11:18:59;12.90;;;4.95;;
30553;SDS011;17335;50.720;7.452;2023-02-08T11:21:34;10.70;;;5.35;;
30553;SDS011;17335;50.720;7.452;2023-02-08T11:26:41;9.80;;;4.97;;
30553;SDS011;17335;50.720;7.452;2023-02-08T11:31:37;11.93;;;5.25;;
30553;SDS011;17335;50.720;7.452;2023-02-08T11:34:06;23.83;;;8.70;;
30553;SDS011;17335;50.720;7.452;2023-02-08T11:36:36;11.48;;;4.28;;
30553;SDS011;17335;50.720;7.452;2023-02-08T11:39:16;13.60;;;5.07;;
30553;SDS011;17335;50.720;7.452;2023-02-08T11:41:48;39.70;;;12.18;;
30553;SDS011;17335;50.720;7.452;2023-02-08T11:44:21;8.93;;;4.60;;
30553;SDS011;17335;50.720;7.452;2023-02-08T11:46:52;9.30;;;4.20;;
30553;SDS011;17335;50.720;7.452;2023-02-08T11:49:23;39.63;;;9.77;;
30553;SDS011;17335;50.720;7.452;2023-02-08T11:51:53;12.82;;;4.72;;
30553;SDS011;17335;50.720;7.452;2023-02-08T11:54:40;8.07;;;3.58;;
30553;SDS011;17335;50.720;7.452;2023-02-08T11:57:40;7.70;;;3.38;;
30553;SDS011;17335;50.720;7.452;2023-02-08T12:00:11;7.40;;;2.88;;
30553;SDS011;17335;50.720;7.452;2023-02-08T12:02:43;8.00;;;3.13;;
30553;SDS011;17335;50.720;7.452;2023-02-08T12:05:12;8.55;;;3.45;;
30553;SDS011;17335;50.720;7.452;2023-02-08T12:07:57;6.80;;;3.30;;
30553;SDS011;17335;50.720;7.452;2023-02-08T12:13:15;7.78;;;3.47;;
30553;SDS011;17335;50.720;7.452;2023-02-08T12:35:40;6.90;;;2.72;;
30553;SDS011;17335;50.720;7.452;2023-02-08T12:53:31;5.72;;;2.50;;
30553;SDS011;17335;50.720;7.452;2023-02-08T12:56:07;6.07;;;2.58;;
30553;SDS011;17335;50.720;7.452;2023-02-08T12:58:45;5.57;;;2.72;;
30553;SDS011;17335;50.720;7.452;2023-02-08T13:01:23;6.03;;;2.50;;
30553;SDS011;17335;50.720;7.452;2023-02-08T13:03:56;6.07;;;2.38;;
30553;SDS011;17335;50.720;7.452;2023-02-08T13:07:12;6.45;;;2.33;;
30553;SDS011;17335;50.720;7.452;2023-02-08T13:09:25;5.43;;;2.78;;
30553;SDS011;17335;50.720;7.452;2023-02-08T13:12:10;5.68;;;2.50;;
30553;SDS011;17335;50.720;7.452;2023-02-08T13:14:45;6.95;;;2.80;;
30553;SDS011;17335;50.720;7.452;2023-02-08T13:17:20;7.97;;;3.55;;
30553;SDS011;17335;50.720;7.452;2023-02-08T13:19:52;6.32;;;2.67;;
30553;SDS011;17335;50.720;7.452;2023-02-08T13:22:26;4.95;;;2.33;;
30553;SDS011;17335;50.720;7.452;2023-02-08T13:24:55;10.05;;;5.85;;
30553;SDS011;17335;50.720;7.452;2023-02-08T13:27:32;6.22;;;2.80;;
30553;SDS011;17335;50.720;7.452;2023-02-08T13:29:59;12.35;;;3.25;;
30553;SDS011;17335;50.720;7.452;2023-02-08T13:32:30;7.10;;;3.60;;
30553;SDS011;17335;50.720;7.452;2023-02-08T13:35:12;5.15;;;2.70;;
30553;SDS011;17335;50.720;7.452;2023-02-08T13:37:51;12.30;;;6.20;;
30553;SDS011;17335;50.720;7.452;2023-02-08T13:40:25;9.35;;;4.18;;
30553;SDS011;17335;50.720;7.452;2023-02-08T13:45:38;9.57;;;4.88;;
30553;SDS011;17335;50.720;7.452;2023-02-08T13:48:13;8.93;;;3.88;;
30553;SDS011;17335;50.720;7.452;2023-02-08T13:50:44;11.00;;;3.38;;
30553;SDS011;17335;50.720;7.452;2023-02-08T13:54:22;5.88;;;2.70;;
30553;SDS011;17335;50.720;7.452;2023-02-08T13:59:03;20.45;;;8.48;;
30553;SDS011;17335;50.720;7.452;2023-02-08T14:04:40;6.32;;;3.33;;
30553;SDS011;17335;50.720;7.452;2023-02-08T14:09:45;13.00;;;4.30;;
30553;SDS011;17335;50.720;7.452;2023-02-08T14:12:29;10.27;;;4.97;;
30553;SDS011;17335;50.720;7.452;2023-02-08T14:17:32;12.95;;;4.68;;
30553;SDS011;17335;50.720;7.452;2023-02-08T14:20:05;15.52;;;6.43;;
30553;SDS011;17335;50.720;7.452;2023-02-08T14:22:38;10.68;;;5.00;;
30553;SDS011;17335;50.720;7.452;2023-02-08T14:25:17;10.18;;;3.67;;
30553;SDS011;17335;50.720;7.452;2023-02-08T14:27:51;7.82;;;3.75;;
30553;SDS011;17335;50.720;7.452;2023-02-08T14:30:20;7.55;;;3.78;;
30553;SDS011;17335;50.720;7.452;2023-02-08T14:32:52;7.55;;;3.13;;
30553;SDS011;17335;50.720;7.452;2023-02-08T14:35:35;6.00;;;2.67;;
30553;SDS011;17335;50.720;7.452;2023-02-08T14:45:56;9.80;;;3.95;;
30553;SDS011;17335;50.720;7.452;2023-02-08T14:48:44;7.57;;;3.55;;
30553;SDS011;17335;50.720;7.452;2023-02-08T14:51:26;10.27;;;4.82;;
30553;SDS011;17335;50.720;7.452;2023-02-08T14:53:57;6.90;;;4.00;;
30553;SDS011;17335;50.720;7.452;2023-02-08T14:56:44;8.63;;;3.72;;
30553;SDS011;17335;50.720;7.452;2023-02-08T14:59:18;7.85;;;3.13;;
30553;SDS011;17335;50.720;7.452;2023-02-08T15:01:58;8.73;;;3.58;;
30553;SDS011;17335;50.720;7.452;2023-02-08T15:04:40;13.93;;;6.00;;
30553;SDS011;17335;50.720;7.452;2023-02-08T15:10:04;8.48;;;3.88;;
30553;SDS011;17335;50.720;7.452;2023-02-08T15:12:37;6.80;;;3.55;;
30553;SDS011;17335;50.720;7.452;2023-02-08T15:15:06;16.17;;;8.93;;
30553;SDS011;17335;50.720;7.452;2023-02-08T15:17:49;7.95;;;4.32;;
30553;SDS011;17335;50.720;7.452;2023-02-08T15:22:48;9.70;;;4.32;;
30553;SDS011;17335;50.720;7.452;2023-02-08T15:25:28;10.20;;;5.10;;
30553;SDS011;17335;50.720;7.452;2023-02-08T15:27:58;7.40;;;3.65;;
30553;SDS011;17335;50.720;7.452;2023-02-08T15:30:34;7.57;;;3.55;;
30553;SDS011;17335;50.720;7.452;2023-02-08T15:33:07;6.57;;;3.42;;
30553;SDS011;17335;50.720;7.452;2023-02-08T15:35:39;9.32;;;3.90;;
30553;SDS011;17335;50.720;7.452;2023-02-08T15:38:26;10.38;;;3.53;;
30553;SDS011;17335;50.720;7.452;2023-02-08T15:41:05;13.40;;;4.55;;
30553;SDS011;17335;50.720;7.452;2023-02-08T15:43:36;7.38;;;3.72;;
30553;SDS011;17335;50.720;7.452;2023-02-08T15:46:06;8.02;;;3.88;;
30553;SDS011;17335;50.720;7.452;2023-02-08T15:48:47;12.38;;;4.40;;
30553;SDS011;17335;50.720;7.452;2023-02-08T15:51:14;8.68;;;4.25;;
30553;SDS011;17335;50.720;7.452;2023-02-08T15:53:51;8.10;;;3.88;;
30553;SDS011;17335;50.720;7.452;2023-02-08T15:56:21;10.90;;;4.18;;
30553;SDS011;17335;50.720;7.452;2023-02-08T15:59:03;12.65;;;4.63;;
30553;SDS011;17335;50.720;7.452;2023-02-08T16:01:39;11.23;;;4.45;;
30553;SDS011;17335;50.720;7.452;2023-02-08T16:04:05;8.57;;;3.80;;
30553;SDS011;17335;50.720;7.452;2023-02-08T16:06:38;10.20;;;5.38;;
30553;SDS011;17335;50.720;7.452;2023-02-08T16:09:15;12.55;;;4.78;;
30553;SDS011;17335;50.720;7.452;2023-02-08T16:11:46;9.45;;;4.65;;
30553;SDS011;17335;50.720;7.452;2023-02-08T16:14:16;10.35;;;4.68;;
30553;SDS011;17335;50.720;7.452;2023-02-08T16:16:48;12.75;;;4.80;;
30553;SDS011;17335;50.720;7.452;2023-02-08T16:19:27;19.75;;;7.65;;
30553;SDS011;17335;50.720;7.452;2023-02-08T16:24:40;27.33;;;10.38;;
30553;SDS011;17335;50.720;7.452;2023-02-08T16:27:23;32.53;;;11.05;;
30553;SDS011;17335;50.720;7.452;2023-02-08T16:29:56;32.47;;;9.82;;
30553;SDS011;17335;50.720;7.452;2023-02-08T16:34:54;35.28;;;10.32;;
30553;SDS011;17335;50.720;7.452;2023-02-08T16:40:01;22.25;;;8.02;;
30553;SDS011;17335;50.720;7.452;2023-02-08T16:42:34;21.33;;;8.70;;
30553;SDS011;17335;50.720;7.452;2023-02-08T16:47:35;22.83;;;8.55;;
30553;SDS011;17335;50.720;7.452;2023-02-08T16:50:03;18.75;;;8.70;;
30553;SDS011;17335;50.720;7.452;2023-02-08T16:52:30;22.13;;;12.18;;
30553;SDS011;17335;50.720;7.452;2023-02-08T16:54:57;20.77;;;10.30;;
30553;SDS011;17335;50.720;7.452;2023-02-08T16:57:38;24.08;;;11.02;;
30553;SDS011;17335;50.720;7.452;2023-02-08T17:00:16;14.27;;;7.07;;
30553;SDS011;17335;50.720;7.452;2023-02-08T17:02:44;20.77;;;9.25;;
30553;SDS011;17335;50.720;7.452;2023-02-08T17:05:13;18.27;;;8.82;;
30553;SDS011;17335;50.720;7.452;2023-02-08T17:07:41;23.48;;;8.82;;
30553;SDS011;17335;50.720;7.452;2023-02-08T17:10:16;19.15;;;7.45;;
30553;SDS011;17335;50.720;7.452;2023-02-08T17:12:45;19.08;;;6.88;;
30553;SDS011;17335;50.720;7.452;2023-02-08T17:15:12;18.48;;;7.70;;
30553;SDS011;17335;50.720;7.452;2023-02-08T17:17:38;14.52;;;6.25;;
30553;SDS011;17335;50.720;7.452;2023-02-08T17:20:09;13.23;;;5.22;;
30553;SDS011;17335;50.720;7.452;2023-02-08T17:22:42;13.80;;;6.35;;
30553;SDS011;17335;50.720;7.452;2023-02-08T17:25:09;15.57;;;7.32;;
30553;SDS011;17335;50.720;7.452;2023-02-08T17:27:36;15.93;;;8.35;;
30553;SDS011;17335;50.720;7.452;2023-02-08T17:30:02;18.17;;;8.63;;
30553;SDS011;17335;50.720;7.452;2023-02-08T17:32:29;14.50;;;6.15;;
30553;SDS011;17335;50.720;7.452;2023-02-08T17:34:55;12.25;;;5.70;;
30553;SDS011;17335;50.720;7.452;2023-02-08T17:37:25;14.60;;;5.05;;